Time;durP1;ratioP1;P1;durP2;ratioP2;P2;SDS_P1;SDS_P2;PMS_P1;PMS_P2;Temp;Humidity;BMP_temperature;BMP_pressure;BME280_temperature;BME280_humidity;BME280_pressure;Samples;Min_cycle;Max_cycle;Signal;HPM_P1;HPM_P2
2022/11/25 00:01:37;;;;;;;0.30;0.30;;;;;;;4.24;100.00;100073.91;6243890;23;20012;-82
2022/11/25 00:04:02;;;;;;;2.15;1.92;;;;;;;4.17;100.00;100069.19;6191555;23;20016;-81
2022/11/25 00:06:30;;;;;;;0.93;0.93;;;;;;;4.12;100.00;100066.88;6242874;23;20019;-81
2022/11/25 00:08:58;;;;;;;0.88;0.88;;;;;;;4.02;100.00;100066.84;6217216;23;20016;-81
2022/11/25 00:11:24;;;;;;;0.80;0.80;;;;;;;3.90;100.00;100069.97;6215453;23;20012;-81
2022/11/25 00:13:50;;;;;;;1.20;1.10;;;;;;;3.90;100.00;100069.97;6216618;23;20008;-81
2022/11/25 00:16:18;;;;;;;0.98;0.90;;;;;;;3.89;100.00;100073.88;6241434;23;20499;-81
2022/11/25 00:18:45;;;;;;;0.55;0.55;;;;;;;3.92;100.00;100092.34;6191556;23;20087;-82
2022/11/25 00:21:15;;;;;;;0.80;0.80;;;;;;;3.90;100.00;100083.69;6243486;23;20012;-81
2022/11/25 00:23:41;;;;;;;0.65;0.50;;;;;;;3.90;100.00;100079.00;6215220;23;20434;-82
2022/11/25 00:26:12;;;;;;;1.55;1.38;;;;;;;3.92;100.00;100078.63;6243364;23;20097;-82
2022/11/25 00:28:38;;;;;;;2.63;1.48;;;;;;;3.90;100.00;100076.25;6242800;23;20008;-82
2022/11/25 00:31:08;;;;;;;0.10;0.10;;;;;;;3.89;100.00;100068.41;6165280;23;20020;-81
2022/11/25 00:33:34;;;;;;;1.45;0.47;;;;;;;3.87;100.00;100059.78;6216484;23;20012;-81
2022/11/25 00:36:01;;;;;;;0.80;0.80;;;;;;;3.89;100.00;100068.41;6243363;23;20057;-85
2022/11/25 00:38:26;;;;;;;1.25;1.23;;;;;;;3.87;100.00;100079.78;6244584;23;20047;-85
2022/11/25 00:44:34;;;;;;;2.13;1.05;;;;;;;3.83;100.00;100064.50;6217642;23;20453;-85
2022/11/25 00:46:22;;;;;;;2.17;2.00;;;;;;;3.83;100.00;100080.97;6243992;23;20008;-85
2022/11/25 00:48:48;;;;;;;1.13;0.93;;;;;;;3.77;100.00;100083.28;6218050;23;20012;-85
2022/11/25 00:51:14;;;;;;;1.98;1.88;;;;;;;3.76;100.00;100093.47;6244312;23;20018;-85
2022/11/25 00:53:39;;;;;;;0.75;0.75;;;;;;;3.70;100.00;100094.25;6244420;23;20043;-81
2022/11/25 00:56:14;;;;;;;4.97;1.85;;;;;;;3.62;100.00;100092.69;6217670;23;20434;-85
2022/11/25 00:58:43;;;;;;;4.68;3.30;;;;;;;3.61;100.00;100091.88;6244524;23;20008;-85
2022/11/25 01:01:10;;;;;;;0.70;0.70;;;;;;;3.50;100.00;100102.06;6192234;23;20411;-85
2022/11/25 01:03:36;;;;;;;0.68;0.68;;;;;;;3.40;100.00;100102.03;6191456;23;20020;-85
2022/11/25 01:06:06;;;;;;;1.00;1.00;;;;;;;3.47;100.00;100113.00;6216965;23;20418;-85
2022/11/25 01:08:34;;;;;;;0.82;0.82;;;;;;;3.46;100.00;100112.22;6215456;23;20354;-85
2022/11/25 01:11:00;;;;;;;2.65;2.47;;;;;;;3.40;100.00;100113.75;6217351;23;20095;-85
2022/11/25 01:13:26;;;;;;;0.13;0.13;;;;;;;3.36;100.00;100118.44;6215012;23;20396;-85
2022/11/25 01:15:54;;;;;;;2.08;1.85;;;;;;;3.33;100.00;100124.72;6241555;23;20019;-85
2022/11/25 01:18:19;;;;;;;0.77;0.77;;;;;;;3.31;100.00;100116.09;6216129;23;20004;-86
2022/11/25 01:20:45;;;;;;;2.13;0.38;;;;;;;3.36;100.00;100123.94;6215514;23;20013;-85
2022/11/25 01:23:10;;;;;;;2.63;1.77;;;;;;;3.32;100.00;100117.66;6242466;23;20480;-85
2022/11/25 01:25:36;;;;;;;1.65;1.55;;;;;;;3.25;100.00;100117.63;6187173;23;20023;-84
2022/11/25 01:28:02;;;;;;;0.98;0.98;;;;;;;3.20;100.00;100121.53;6215966;23;20004;-85
2022/11/25 01:30:27;;;;;;;2.92;0.80;;;;;;;3.10;100.00;100116.78;6216381;23;20023;-82
2022/11/25 01:32:53;;;;;;;0.75;0.75;;;;;;;3.00;100.00;100133.16;6215120;23;20035;-85
2022/11/25 01:35:18;;;;;;;1.55;1.45;;;;;;;2.96;100.00;100124.13;6191593;23;20090;-85
2022/11/25 01:37:44;;;;;;;1.20;0.63;;;;;;;2.92;100.00;100126.06;6191683;23;20032;-85
2022/11/25 01:40:10;;;;;;;1.88;1.75;;;;;;;2.88;100.00;100128.00;6217010;23;20031;-85
2022/11/25 01:42:41;;;;;;;0.85;0.40;;;;;;;2.80;100.00;100130.72;6216903;23;20000;-85
2022/11/25 01:45:22;;;;;;;0.28;0.28;;;;;;;2.77;100.00;100136.16;6244279;23;20054;-85
2022/11/25 01:47:55;;;;;;;0.32;0.32;;;;;;;2.72;100.00;100131.84;6243454;23;20449;-85
2022/11/25 01:50:22;;;;;;;0.95;0.95;;;;;;;2.65;100.00;100129.06;6217413;23;20019;-81
2022/11/25 01:52:49;;;;;;;0.32;0.32;;;;;;;2.64;100.00;100137.66;6217076;23;20008;-81
2022/11/25 01:55:22;;;;;;;0.05;0.05;;;;;;;2.63;100.00;100141.56;6192008;23;20008;-81
2022/11/25 01:57:54;;;;;;;0.75;0.75;;;;;;;2.54;100.00;100133.69;6217754;23;20082;-81
2022/11/25 02:00:22;;;;;;;1.35;1.15;;;;;;;2.47;100.00;100133.63;6192491;23;20035;-81
2022/11/25 07:41:35;;;;;;;0.30;0.30;;;;;;;0.71;100.00;100339.97;6236372;23;20031;-84
2022/11/25 07:44:03;;;;;;;0.10;0.10;;;;;;;0.70;100.00;100358.31;6243933;23;20016;-84
2022/11/25 07:46:38;;;;;;;0.60;0.60;;;;;;;0.75;100.00;100355.28;6216472;23;20610;-84
2022/11/25 07:49:06;;;;;;;1.15;1.10;;;;;;;0.73;100.00;100356.81;6216308;23;20016;-84
2022/11/25 07:51:40;;;;;;;0.93;0.85;;;;;;;0.74;100.00;100372.00;6216501;23;20450;-84
2022/11/25 07:54:10;;;;;;;1.23;1.10;;;;;;;0.79;100.00;100358.84;6191048;23;20323;-80
2022/11/25 07:56:36;;;;;;;0.65;0.65;;;;;;;0.62;100.00;100370.25;6190692;23;20070;-81
2022/11/25 07:59:02;;;;;;;1.23;1.13;;;;;;;0.64;100.00;100370.69;6215782;23;20442;-81
2022/11/25 08:01:28;;;;;;;1.38;1.27;;;;;;;0.63;100.00;100371.81;6242923;23;20062;-81
2022/11/25 08:03:54;;;;;;;0.75;0.75;;;;;;;0.73;100.00;100376.69;6161003;23;20013;-81
2022/11/25 08:06:22;;;;;;;0.38;0.38;;;;;;;0.74;100.00;100386.47;6212591;23;20009;-80
2022/11/25 08:08:48;;;;;;;0.70;0.70;;;;;;;0.75;100.00;100390.78;6215952;23;20071;-80
2022/11/25 08:11:19;;;;;;;1.85;1.75;;;;;;;0.61;100.00;100390.50;6239667;22;20091;-81
2022/11/25 08:13:45;;;;;;;1.15;0.85;;;;;;;0.74;100.00;100391.91;6214360;23;20342;-84
2022/11/25 08:16:12;;;;;;;0.70;0.70;;;;;;;0.64;100.00;100397.97;6241163;23;20074;-83
2022/11/25 08:18:38;;;;;;;1.77;1.30;;;;;;;0.77;100.00;100396.66;6215911;23;20024;-83
2022/11/25 08:21:05;;;;;;;1.25;1.23;;;;;;;0.92;100.00;100409.44;6216141;23;20084;-83
2022/11/25 08:23:32;;;;;;;2.17;2.00;;;;;;;0.97;100.00;100399.34;6242492;23;20584;-83
2022/11/25 08:26:02;;;;;;;2.63;2.42;;;;;;;1.07;100.00;100401.47;6242488;23;20350;-84
2022/11/25 08:28:28;;;;;;;2.00;1.90;;;;;;;1.18;100.00;100403.22;6215665;23;20015;-83
2022/11/25 08:31:04;;;;;;;2.58;2.38;;;;;;;1.34;100.00;100408.56;6215557;23;20369;-81
2022/11/25 08:33:29;;;;;;;1.00;1.00;;;;;;;1.45;100.00;100400.53;6215601;23;20355;-83
2022/11/25 08:35:55;;;;;;;1.58;0.85;;;;;;;1.73;100.00;100417.38;6242134;23;20013;-83
2022/11/25 08:38:23;;;;;;;3.45;2.55;;;;;;;1.82;100.00;100409.72;6189949;23;20075;-83
2022/11/25 08:40:49;;;;;;;1.33;1.23;;;;;;;2.00;100.00;100415.41;6189761;23;20016;-84
2022/11/25 08:43:14;;;;;;;3.53;3.22;;;;;;;2.05;100.00;100412.38;6240876;23;20020;-83
2022/11/25 08:45:40;;;;;;;1.38;1.33;;;;;;;2.11;100.00;100419.06;6242164;23;20440;-84
2022/11/25 08:48:06;;;;;;;2.35;2.10;;;;;;;2.38;100.00;100420.63;6189680;23;20850;-83
2022/11/25 08:50:31;;;;;;;7.85;4.25;;;;;;;2.63;100.00;100413.47;6215449;23;20031;-81
2022/11/25 08:52:58;;;;;;;6.93;4.05;;;;;;;2.68;100.00;100413.13;6214498;23;20008;-81
2022/11/25 08:55:26;;;;;;;0.80;0.80;;;;;;;2.93;100.00;100409.88;6214407;23;20138;-81
2022/11/25 08:57:52;;;;;;;2.97;2.75;;;;;;;3.20;100.00;100419.53;6215000;23;20012;-81
2022/11/25 09:00:18;;;;;;;2.08;1.90;;;;;;;3.30;100.00;100407.88;6190263;23;20008;-81
2022/11/25 09:02:43;;;;;;;1.98;1.88;;;;;;;3.26;100.00;100409.81;6242340;23;20091;-81
2022/11/25 09:05:12;;;;;;;1.65;1.55;;;;;;;3.33;100.00;100415.34;6215186;23;20023;-82
2022/11/25 09:07:37;;;;;;;3.72;3.10;;;;;;;3.53;100.00;100402.97;6242488;23;20409;-81
2022/11/25 09:10:04;;;;;;;1.77;1.67;;;;;;;3.66;100.00;100404.25;6242369;23;20427;-84
2022/11/25 09:12:30;;;;;;;2.03;1.45;;;;;;;3.77;100.00;100390.59;6213451;23;20024;-82
2022/11/25 09:14:55;;;;;;;2.08;1.13;;;;;;;3.83;100.00;100400.03;6242085;23;20019;-82
2022/11/25 09:17:21;;;;;;;1.13;1.13;;;;;;;3.86;100.00;100404.75;6214204;23;20354;-81
2022/11/25 09:19:46;;;;;;;1.95;1.73;;;;;;;4.02;100.00;100396.22;6242271;23;20012;-82
2022/11/25 09:22:12;;;;;;;2.83;2.63;;;;;;;4.27;100.00;100405.38;6189122;23;20016;-82
2022/11/25 09:24:37;;;;;;;2.45;2.13;;;;;;;4.22;100.00;100395.53;6215560;23;20019;-81
2022/11/25 09:27:03;;;;;;;8.20;1.70;;;;;;;4.37;100.00;100396.38;6189339;23;20050;-81
2022/11/25 09:29:29;;;;;;;1.85;1.30;;;;;;;4.56;100.00;100401.56;6241489;23;20024;-81
2022/11/25 09:31:55;;;;;;;2.95;2.65;;;;;;;4.60;100.00;100396.09;6215194;23;20027;-81
2022/11/25 09:34:21;;;;;;;2.67;2.45;;;;;;;4.75;100.00;100400.44;6214231;23;20048;-82
2022/11/25 09:36:46;;;;;;;1.80;1.55;;;;;;;4.91;100.00;100398.13;6242673;23;20016;-80
2022/11/25 09:39:12;;;;;;;1.98;1.85;;;;;;;5.23;100.00;100400.13;6214170;23;20008;-80
2022/11/25 09:48:06;;;;;;;2.47;2.28;;;;;;;5.93;100.00;100394.59;6196370;23;20099;-80
2022/11/25 09:50:34;;;;;;;1.17;1.15;;;;;;;6.24;100.00;100392.94;6217818;23;20059;-83
2022/11/25 09:53:30;;;;;;;1.13;1.08;;;;;;;6.45;100.00;100392.84;6217088;23;20012;-83
2022/11/25 09:56:02;;;;;;;5.55;1.80;;;;;;;6.48;100.00;100389.28;6216615;23;20012;-83
2022/11/25 09:58:32;;;;;;;1.63;1.20;;;;;;;6.89;100.00;100388.69;6243749;23;20020;-83
2022/11/25 10:00:59;;;;;;;0.55;0.55;;;;;;;7.02;100.00;100387.03;6217069;23;20012;-83
2022/11/25 10:03:39;;;;;;;1.70;1.00;;;;;;;7.38;100.00;100385.56;6191765;23;20062;-83
2022/11/25 10:06:25;;;;;;;2.15;1.95;;;;;;;7.74;100.00;100388.81;6217013;23;20020;-83
2022/11/25 10:08:54;;;;;;;0.60;0.60;;;;;;;7.75;100.00;100381.31;6191235;23;20020;-80
2022/11/25 10:11:20;;;;;;;1.17;1.08;;;;;;;7.93;100.00;100384.66;6243221;23;20012;-80
2022/11/25 10:13:51;;;;;;;3.72;1.75;;;;;;;7.99;100.00;100383.03;6191500;23;20024;-80
2022/11/25 10:16:34;;;;;;;1.73;1.45;;;;;;;8.03;100.00;100385.75;6217042;23;20024;-82
2022/11/25 10:19:04;;;;;;;1.60;1.50;;;;;;;8.14;100.00;100370.63;6216609;23;20016;-83
2022/11/25 10:21:29;;;;;;;2.85;2.65;;;;;;;8.51;100.00;100374.53;6192089;23;20023;-83
2022/11/25 10:23:55;;;;;;;1.70;1.60;;;;;;;8.46;100.00;100375.00;6216605;23;20008;-82
2022/11/25 10:26:27;;;;;;;0.85;0.85;;;;;;;8.85;100.00;100378.03;6191654;23;20019;-83
2022/11/25 10:28:56;;;;;;;1.65;1.55;;;;;;;8.84;100.00;100379.22;6166578;23;20365;-82
2022/11/25 10:31:28;;;;;;;0.05;0.05;;;;;;;9.40;100.00;100371.25;6216776;23;20055;-82
2022/11/25 10:33:58;;;;;;;0.60;0.60;;;;;;;9.28;100.00;100367.88;6192483;23;20443;-82
2022/11/25 10:36:27;;;;;;;1.17;1.08;;;;;;;9.29;100.00;100360.38;6217005;23;20008;-83
2022/11/25 10:38:53;;;;;;;0.80;0.75;;;;;;;9.49;100.00;100363.19;6215887;23;20394;-82
2022/11/25 10:41:20;;;;;;;0.20;0.20;;;;;;;9.67;100.00;100353.34;6243131;23;20051;-81
2022/11/25 10:43:47;;;;;;;2.05;0.77;;;;;;;9.77;100.00;100362.69;6216674;23;20008;-85
2022/11/25 10:46:27;;;;;;;0.82;0.80;;;;;;;9.90;100.00;100352.56;6243076;23;20020;-81
2022/11/25 10:49:06;;;;;;;2.85;1.00;;;;;;;10.03;100.00;100358.25;6243037;23;20019;-81
2022/11/25 10:51:39;;;;;;;0.52;0.52;;;;;;;10.21;100.00;100350.38;6216740;23;20012;-81
2022/11/25 10:54:12;;;;;;;0.43;0.43;;;;;;;9.83;100.00;100350.69;6191318;23;20008;-81
2022/11/25 10:56:50;;;;;;;0.70;0.70;;;;;;;10.01;100.00;100344.81;6216337;23;20444;-81
2022/11/25 10:59:31;;;;;;;0.60;0.60;;;;;;;10.26;100.00;100345.13;6216011;23;20012;-81
2022/11/25 11:02:30;;;;;;;0.75;0.63;;;;;;;10.50;100.00;100336.72;6191388;23;20165;-81
2022/11/25 11:05:08;;;;;;;0.60;0.60;;;;;;;10.75;100.00;100334.19;6190967;23;20346;-81
2022/11/25 11:07:44;;;;;;;1.15;1.05;;;;;;;11.09;100.00;100329.00;6243556;23;20127;-82
2022/11/25 11:10:13;;;;;;;0.63;0.63;;;;;;;10.97;100.00;100321.34;6165657;23;20016;-82
2022/11/25 11:12:59;;;;;;;11.10;1.85;;;;;;;11.08;100.00;100321.88;6243337;23;20016;-82
2022/11/25 11:15:30;;;;;;;0.63;0.57;;;;;;;11.27;100.00;100311.91;6191528;23;20012;-82
2022/11/25 11:17:57;;;;;;;1.55;0.85;;;;;;;11.22;100.00;100304.88;6191769;23;20442;-81
2022/11/25 11:20:25;;;;;;;0.35;0.35;;;;;;;11.10;100.00;100299.25;6191032;23;20422;-82
2022/11/25 11:22:55;;;;;;;0.95;0.70;;;;;;;11.19;100.00;100316.88;6216782;23;20222;-81
2022/11/25 11:25:22;;;;;;;1.45;1.13;;;;;;;11.34;100.00;100310.94;6190867;23;20082;-85
2022/11/25 11:27:48;;;;;;;0.63;0.52;;;;;;;11.18;100.00;100312.53;6243152;23;20070;-85
2022/11/25 11:30:19;;;;;;;0.10;0.10;;;;;;;11.41;100.00;100294.09;6190672;23;20409;-84
2022/11/25 11:33:04;;;;;;;0.65;0.65;;;;;;;11.42;100.00;100298.44;6191270;23;20024;-84
2022/11/25 11:35:35;;;;;;;0.38;0.38;;;;;;;11.23;100.00;100305.66;6192790;23;20068;-85
2022/11/25 11:38:07;;;;;;;0.75;0.75;;;;;;;11.23;100.00;100303.69;6243048;23;20012;-85
2022/11/25 11:40:45;;;;;;;0.55;0.38;;;;;;;11.34;100.00;100283.16;6215942;23;20008;-85
2022/11/25 11:43:28;;;;;;;0.57;0.57;;;;;;;11.43;100.00;100288.88;6211540;23;20048;-84
2022/11/25 11:45:56;;;;;;;0.20;0.20;;;;;;;11.51;100.00;100293.81;6183615;23;20087;-85
2022/11/25 11:48:27;;;;;;;0.75;0.75;;;;;;;11.65;98.41;100293.44;6160667;23;20737;-85
2022/11/25 11:50:59;;;;;;;0.52;0.52;;;;;;;11.55;100.00;100299.28;6186149;23;20446;-86
2022/11/25 11:53:49;;;;;;;0.45;0.32;;;;;;;11.69;100.00;100293.34;6186436;23;20020;-84
2022/11/25 11:56:24;;;;;;;2.60;0.73;;;;;;;11.63;100.00;100297.88;6185712;23;20020;-85
2022/11/25 11:59:05;;;;;;;1.38;1.30;;;;;;;11.53;100.00;100301.72;6213357;23;20067;-84
2022/11/25 12:02:08;;;;;;;1.30;1.13;;;;;;;11.78;100.00;100296.28;6185858;23;20023;-82
2022/11/25 12:05:02;;;;;;;0.90;0.65;;;;;;;11.63;100.00;100290.31;6162398;23;20020;-82
2022/11/25 12:07:39;;;;;;;0.22;0.22;;;;;;;11.83;100.00;100287.44;6138640;23;20023;-85
2022/11/25 12:10:14;;;;;;;0.70;0.70;;;;;;;11.77;100.00;100288.41;6137690;23;20023;-88
2022/11/25 12:13:02;;;;;;;0.90;0.65;;;;;;;11.67;100.00;100295.78;6188020;23;20083;-82
2022/11/25 12:15:40;;;;;;;0.63;0.63;;;;;;;11.64;100.00;100293.88;6187843;23;20016;-82
2022/11/25 12:18:19;;;;;;;1.52;1.42;;;;;;;11.32;100.00;100296.72;6162773;23;20047;-84
2022/11/25 12:20:54;;;;;;;5.88;1.70;;;;;;;11.27;100.00;100300.03;6214629;23;20455;-82
2022/11/25 12:23:32;;;;;;;0.47;0.40;;;;;;;11.28;100.00;100290.47;6163083;23;20043;-81
2022/11/25 12:26:02;;;;;;;0.38;0.38;;;;;;;11.45;100.00;100300.34;6187116;23;20135;-81
2022/11/25 12:28:38;;;;;;;1.63;1.52;;;;;;;11.35;100.00;100301.41;6163275;23;20012;-82
2022/11/25 12:31:20;;;;;;;6.88;1.25;;;;;;;11.24;100.00;100296.88;6214758;23;20012;-82
2022/11/25 12:34:02;;;;;;;1.38;0.82;;;;;;;11.26;100.00;100301.22;6162768;23;20016;-81
2022/11/25 12:36:48;;;;;;;0.40;0.40;;;;;;;11.21;100.00;100299.75;6188018;23;20447;-81
2022/11/25 12:39:28;;;;;;;0.70;0.60;;;;;;;11.04;100.00;100293.41;6161884;23;20450;-81
2022/11/25 12:42:00;;;;;;;1.00;0.90;;;;;;;11.19;100.00;100294.66;6193895;23;20009;-85
2022/11/25 12:44:49;;;;;;;0.30;0.30;;;;;;;11.19;100.00;100291.09;6244565;23;20346;-85
2022/11/25 12:47:15;;;;;;;3.70;1.60;;;;;;;11.40;100.00;100290.56;6244364;23;20050;-85
2022/11/25 12:49:42;;;;;;;0.25;0.25;;;;;;;11.19;100.00;100291.88;6244569;23;20004;-86
2022/11/25 12:52:33;;;;;;;1.20;1.10;;;;;;;11.35;100.00;100281.97;6217679;23;20104;-85
2022/11/25 12:55:17;;;;;;;0.40;0.38;;;;;;;11.58;100.00;100290.06;6243513;23;20018;-86
2022/11/25 12:58:21;;;;;;;0.50;0.43;;;;;;;11.67;100.00;100295.78;6244617;23;20015;-85
2022/11/25 13:01:20;;;;;;;1.52;1.42;;;;;;;11.63;100.00;100292.31;6068514;23;20472;-81
2022/11/25 13:03:59;;;;;;;3.80;1.05;;;;;;;11.64;100.00;100291.13;6192548;23;20095;-82
2022/11/25 13:06:39;;;;;;;0.00;0.00;;;;;;;11.56;100.00;100289.75;6217831;23;20059;-82
2022/11/25 13:09:23;;;;;;;6.90;1.65;;;;;;;11.63;100.00;100297.88;6216090;23;20123;-81
2022/11/25 13:12:01;;;;;;;;;;;;;;;11.69;100.00;100299.69;6216786;23;20059;-81
2022/11/25 13:15:01;;;;;;;1.98;1.33;;;;;;;11.75;97.10;100299.19;6191056;23;19966;-81
2022/11/25 13:17:28;;;;;;;0.63;0.63;;;;;;;11.73;99.42;100291.28;6242970;23;20097;-86
2022/11/25 13:20:28;;;;;;;0.55;0.50;;;;;;;11.75;99.41;100293.63;6216243;23;20008;-86
2022/11/25 13:23:09;;;;;;;0.50;0.43;;;;;;;11.74;96.76;100301.16;6216259;23;20126;-85
2022/11/25 13:25:36;;;;;;;2.70;1.17;;;;;;;11.78;97.39;100295.50;6243258;23;20032;-86
2022/11/25 13:28:04;;;;;;;0.00;0.00;;;;;;;11.87;95.97;100296.44;6214204;23;20008;-85
2022/11/25 13:30:32;;;;;;;0.30;0.30;;;;;;;11.87;88.34;100295.66;6241840;23;20040;-85
2022/11/25 13:33:10;;;;;;;0.20;0.20;;;;;;;11.84;85.97;100289.00;6216645;23;20038;-86
2022/11/25 13:35:42;;;;;;;0.00;0.00;;;;;;;11.77;87.93;100294.72;6215165;23;20020;-86
2022/11/25 13:38:37;;;;;;;0.10;0.10;;;;;;;11.64;83.56;100280.00;6215293;23;20070;-85
2022/11/25 13:41:22;;;;;;;0.32;0.32;;;;;;;11.75;85.47;100291.63;6163856;23;20374;-86
2022/11/25 13:43:58;;;;;;;0.85;0.85;;;;;;;11.59;89.14;100300.75;6190238;23;20080;-86
2022/11/25 13:46:45;;;;;;;0.80;0.80;;;;;;;11.38;93.60;100289.41;6188422;23;20458;-86
2022/11/25 13:49:32;;;;;;;0.88;0.40;;;;;;;11.34;97.16;100300.63;6213285;23;20019;-86
2022/11/25 13:52:39;;;;;;;0.57;0.57;;;;;;;11.17;97.72;100294.28;6214164;23;20027;-86
2022/11/25 13:55:16;;;;;;;0.65;0.65;;;;;;;10.97;98.23;100304.72;6184586;23;20051;-86
2022/11/25 13:58:05;;;;;;;0.40;0.40;;;;;;;10.76;100.00;100285.78;6213748;23;20020;-86
2022/11/25 14:00:30;;;;;;;1.02;0.93;;;;;;;10.60;100.00;100296.84;6240926;23;20016;-85
2022/11/25 14:03:16;;;;;;;0.90;0.68;;;;;;;10.52;100.00;100296.25;6240971;23;20067;-87
2022/11/25 14:05:49;;;;;;;1.17;1.02;;;;;;;10.34;100.00;100290.31;6241785;23;20012;-85
2022/11/25 14:08:31;;;;;;;0.20;0.20;;;;;;;10.22;100.00;100300.06;6239829;23;20103;-86
2022/11/25 14:11:09;;;;;;;1.90;1.52;;;;;;;10.16;100.00;100301.78;6188051;23;20446;-86
2022/11/25 14:13:41;;;;;;;3.35;1.27;;;;;;;10.07;100.00;100298.00;6213651;23;20020;-81
2022/11/25 14:16:25;;;;;;;1.15;0.70;;;;;;;10.00;100.00;100306.44;6213597;23;20019;-82
2022/11/25 14:18:59;;;;;;;0.43;0.43;;;;;;;9.93;100.00;100303.81;6240831;23;20050;-82
2022/11/25 14:21:49;;;;;;;0.68;0.55;;;;;;;9.80;100.00;100300.88;6188499;23;20465;-82
2022/11/25 14:24:29;;;;;;;0.30;0.30;;;;;;;9.69;100.00;100301.09;6240070;23;20023;-82
2022/11/25 14:26:56;;;;;;;0.88;0.75;;;;;;;9.67;100.00;100308.25;6214533;23;20008;-81
2022/11/25 14:29:31;;;;;;;0.73;0.38;;;;;;;9.59;100.00;100302.06;6213438;23;20028;-82
2022/11/25 14:32:12;;;;;;;0.30;0.30;;;;;;;9.49;100.00;100297.53;6241677;23;20070;-82
2022/11/25 14:35:01;;;;;;;0.30;0.30;;;;;;;9.42;100.00;100307.94;6189006;23;20028;-86
2022/11/25 14:37:38;;;;;;;3.00;1.30;;;;;;;9.34;100.00;100301.75;6241095;23;20043;-86
2022/11/25 14:40:12;;;;;;;1.20;1.17;;;;;;;9.18;100.00;100299.63;6213807;23;20111;-85
2022/11/25 14:42:38;;;;;;;;;;;;;;;9.07;100.00;100296.25;6214508;23;20020;-86
2022/11/25 14:45:28;;;;;;;1.63;1.52;;;;;;;8.94;100.00;100311.88;6213441;23;19911;-85
2022/11/25 14:47:54;;;;;;;2.00;1.80;;;;;;;8.79;100.00;100300.25;6214909;23;20058;-86
2022/11/25 14:50:20;;;;;;;3.63;1.85;;;;;;;8.66;100.00;100306.78;6212622;23;20012;-86
2022/11/25 14:52:46;;;;;;;0.75;0.75;;;;;;;8.55;100.00;100306.16;6214757;23;20091;-85
2022/11/25 14:55:22;;;;;;;1.40;1.30;;;;;;;8.47;100.00;100315.75;6187705;23;20020;-85
2022/11/25 14:57:48;;;;;;;1.17;1.13;;;;;;;8.32;100.00;100307.66;6164877;23;20386;-86
2022/11/25 15:00:15;;;;;;;0.73;0.73;;;;;;;8.23;100.00;100301.81;6212649;23;20012;-85
2022/11/25 15:03:03;;;;;;;2.03;1.00;;;;;;;8.09;100.00;100302.00;6214611;23;20012;-85
2022/11/25 15:05:36;;;;;;;1.23;1.17;;;;;;;8.01;100.00;100300.50;6188826;23;20405;-85
2022/11/25 15:08:11;;;;;;;1.60;1.50;;;;;;;7.88;100.00;100303.06;6214662;23;20012;-85
2022/11/25 15:10:39;;;;;;;0.77;0.77;;;;;;;7.75;100.00;100293.72;6239742;23;20024;-82
2022/11/25 15:13:23;;;;;;;1.08;1.00;;;;;;;7.71;100.00;100297.72;6189347;23;20009;-82
2022/11/25 15:15:50;;;;;;;0.45;0.45;;;;;;;7.55;100.00;100298.28;6213602;23;20105;-82
2022/11/25 15:18:21;;;;;;;0.55;0.55;;;;;;;7.52;100.00;100303.84;6164366;23;20027;-81
2022/11/25 15:20:56;;;;;;;1.17;1.17;;;;;;;7.36;100.00;100299.63;6214239;23;20020;-82
2022/11/25 15:23:33;;;;;;;0.70;0.70;;;;;;;7.32;100.00;100304.41;6188231;23;21060;-81
2022/11/25 15:26:00;;;;;;;0.20;0.20;;;;;;;7.22;100.00;100304.50;6190715;23;20027;-81
2022/11/25 15:28:25;;;;;;;2.10;1.90;;;;;;;7.04;100.00;100315.69;6242851;23;20004;-82
2022/11/25 15:30:56;;;;;;;1.15;1.05;;;;;;;6.88;100.00;100307.13;6243209;23;20020;-82
2022/11/25 15:33:23;;;;;;;1.95;1.35;;;;;;;6.90;100.00;100315.81;6216362;23;20091;-81
2022/11/25 15:35:49;;;;;;;1.45;1.35;;;;;;;6.76;100.00;100310.38;6191354;23;20007;-81
2022/11/25 15:38:37;;;;;;;1.42;1.33;;;;;;;6.67;100.00;100313.63;6215036;23;20020;-82
2022/11/25 15:41:04;;;;;;;1.70;1.60;;;;;;;6.54;100.00;100310.53;6216198;23;20031;-81
2022/11/25 15:43:30;;;;;;;4.32;2.78;;;;;;;6.41;100.00;100306.66;6185819;23;20016;-82
2022/11/25 15:46:00;;;;;;;2.80;2.60;;;;;;;6.38;100.00;100301.97;6186501;23;20016;-82
2022/11/25 15:48:28;;;;;;;7.07;3.25;;;;;;;6.35;100.00;100297.25;6185553;23;20074;-81
2022/11/25 15:51:03;;;;;;;4.18;3.88;;;;;;;6.28;100.00;100322.06;6186439;23;20026;-85
2022/11/25 15:53:29;;;;;;;3.08;2.78;;;;;;;6.24;100.00;100318.56;6211690;23;20103;-82
2022/11/25 15:55:59;;;;;;;2.97;2.35;;;;;;;6.22;100.00;100315.44;6185700;23;20017;-81
2022/11/25 15:58:25;;;;;;;7.18;3.80;;;;;;;6.15;100.00;100309.94;6160173;23;20326;-81
2022/11/25 16:01:00;;;;;;;4.60;4.00;;;;;;;6.10;100.00;100321.38;6186628;23;20431;-82
2022/11/25 16:03:27;;;;;;;3.47;3.17;;;;;;;6.02;100.00;100312.38;6185024;23;20028;-81
2022/11/25 16:05:54;;;;;;;4.10;3.53;;;;;;;6.00;100.00;100319.44;6161543;23;20043;-81
2022/11/25 16:08:33;;;;;;;2.38;2.17;;;;;;;5.98;100.00;100324.59;6211113;23;20027;-81
2022/11/25 16:11:09;;;;;;;1.45;1.38;;;;;;;5.94;100.00;100321.84;6212352;23;20013;-85
2022/11/25 16:13:36;;;;;;;4.72;2.70;;;;;;;5.89;100.00;100333.25;6212375;23;20044;-85
2022/11/25 16:16:13;;;;;;;1.15;1.13;;;;;;;5.80;100.00;100323.81;6186228;23;20016;-84
2022/11/25 16:19:02;;;;;;;5.97;3.15;;;;;;;5.72;100.00;100325.00;6212525;23;20024;-85
2022/11/25 16:21:33;;;;;;;10.23;2.85;;;;;;;5.72;100.00;100330.53;6211954;23;20013;-85
2022/11/25 16:24:05;;;;;;;1.55;1.40;;;;;;;5.68;100.00;100326.97;6184447;23;20645;-85
2022/11/25 16:26:36;;;;;;;4.03;3.13;;;;;;;5.62;100.00;100326.63;6213858;23;20043;-84
2022/11/25 16:29:13;;;;;;;1.13;1.08;;;;;;;5.51;100.00;100321.13;6187513;23;20523;-85
2022/11/25 16:31:39;;;;;;;1.33;1.23;;;;;;;5.45;100.00;100332.94;6184230;23;20012;-81
2022/11/25 16:34:17;;;;;;;3.83;3.15;;;;;;;5.36;100.00;100327.84;6158765;23;20008;-81
2022/11/25 16:36:43;;;;;;;4.22;1.42;;;;;;;5.32;100.00;100329.81;6171441;23;20019;-81
2022/11/25 16:39:08;;;;;;;1.55;1.45;;;;;;;5.31;100.00;100341.97;6182798;23;20100;-82
2022/11/25 16:41:34;;;;;;;4.18;2.50;;;;;;;5.21;100.00;100329.03;6158113;23;20008;-81
2022/11/25 16:44:00;;;;;;;2.30;2.10;;;;;;;5.27;100.00;100332.94;6224586;23;20061;-82
2022/11/25 16:46:26;;;;;;;1.55;1.45;;;;;;;5.32;100.00;100340.81;6214248;23;20043;-82
2022/11/25 16:48:51;;;;;;;7.65;1.45;;;;;;;5.31;100.00;100344.72;6242810;23;20008;-81
2022/11/25 16:51:18;;;;;;;3.28;2.38;;;;;;;5.31;100.00;100341.97;6214502;23;20338;-81
2022/11/25 16:53:44;;;;;;;2.25;2.10;;;;;;;5.31;100.00;100350.22;6215814;23;20019;-81
2022/11/25 16:56:13;;;;;;;4.40;3.13;;;;;;;5.24;100.00;100346.69;6188985;23;20066;-81
2022/11/25 16:58:38;;;;;;;5.70;2.92;;;;;;;5.22;100.00;100349.81;6242839;23;20019;-82
2022/11/25 17:01:04;;;;;;;5.93;3.28;;;;;;;5.25;100.00;100357.31;6215080;23;20021;-82
2022/11/25 17:03:29;;;;;;;4.25;3.90;;;;;;;5.23;100.00;100354.16;6215472;23;20008;-82
2022/11/25 17:05:55;;;;;;;3.33;2.72;;;;;;;5.14;100.00;100351.00;6215518;23;20331;-82
2022/11/25 17:08:21;;;;;;;3.97;2.97;;;;;;;5.15;100.00;100369.09;6241522;23;20323;-84
2022/11/25 17:10:47;;;;;;;5.35;3.00;;;;;;;5.12;100.00;100358.88;6215347;23;20015;-84
2022/11/25 17:13:18;;;;;;;2.70;2.50;;;;;;;5.12;100.00;100364.38;6241031;23;20024;-84
2022/11/25 17:15:44;;;;;;;9.40;5.93;;;;;;;5.05;100.00;100353.38;6215593;23;20070;-84
2022/11/25 17:18:11;;;;;;;6.07;5.43;;;;;;;5.04;100.00;100349.06;6214252;23;20039;-84
2022/11/25 17:20:36;;;;;;;6.18;3.55;;;;;;;5.06;100.00;100361.22;6190282;23;20040;-84
2022/11/25 17:23:02;;;;;;;7.90;6.70;;;;;;;5.02;100.00;100360.44;6241028;23;20096;-84
2022/11/25 17:25:27;;;;;;;3.22;2.97;;;;;;;5.11;100.00;100374.59;6240712;23;20012;-84
2022/11/25 17:27:54;;;;;;;3.35;3.05;;;;;;;5.04;100.00;100368.31;6241563;23;20020;-82
2022/11/25 17:30:24;;;;;;;5.40;4.80;;;;;;;5.04;100.00;100369.09;6240868;23;20095;-82
2022/11/25 17:33:00;;;;;;;6.20;4.28;;;;;;;5.07;100.00;100373.00;6241350;23;20023;-82
2022/11/25 17:35:25;;;;;;;5.72;4.80;;;;;;;5.02;100.00;100365.94;6189458;23;20008;-83